Metar Cercanos

 

LEPA - Palma De Mallorc, Spain
Distance from station: ONO 38km
Actualización: Fri, 24-May-2024 5:30am CEST
Few Clouds
Few Clouds
 Viento del varies
Viento: varies 2 km/h
Temperatura: 17°C
Rocío: 15°C
Humedad: 88%
Barómetro: 1016 hPa
Clouds: Few Clouds
Visibility: 10 km
Cloud details: Few Clouds 762 m
2024/05/24 03:30 LEPA 240330Z VRB01KT 9999 FEW025 17/15 Q1016 NOSIG
LEMH - Mahon/Menorca Is, Spain
Distance from station: ENE 105km
Actualización: Fri, 24-May-2024 5:30am CEST
Despejado
Despejado
 Viento del NE
Viento: NE 13 km/h
Temperatura: 17°C
Rocío: 17°C
Humedad: 100%
Barómetro: 1016 hPa
Resumen: Despejado
Visibility: greater than 10 km
2024/05/24 03:30 LEMH 240330Z AUTO 05007KT CAVOK 17/17 Q1016
 
LEIB - Ibiza/Es Codola, Spain
Distance from station: OSO 165km
Actualización: Fri, 24-May-2024 5:30am CEST
Muy nuboso
Muy nuboso
 Viento del NNE
Viento: NNE 11 km/h
Temperatura: 18°C
Rocío: 16°C
Humedad: 88%
Barómetro: 1015 hPa
Clouds: Muy nuboso
Visibility: 10 km
Cloud details: Muy nuboso 396 m
2024/05/24 03:30 LEIB 240330Z 02006KT 350V050 9999 BKN013 18/16 Q1015 NOSIG
LEBL - Barcelona Airpor, Spain
Distance from station: NNO 225km
Actualización: Fri, 24-May-2024 5:30am CEST
Parcialmente nuboso
Parcialmente nuboso
 Viento del NNO
Viento: NNO 11 km/h
Temperatura: 16°C
Rocío: 11°C
Humedad: 72%
Barómetro: 1018 hPa
Clouds: Parcialmente nuboso
Visibility: 10 km
Cloud details: Parcialmente nuboso 914 m
2024/05/24 03:30 LEBL 240330Z 33006KT 9999 SCT030 16/11 Q1018 NOSIG
 
LEVC - Valencia (civ/Mi, Spain
Distance from station: NO 188km
Actualización: Fri, 24-May-2024 5:30am CEST
Despejado
Despejado
 Viento del NO
Viento: NO 7 km/h
Temperatura: 16°C
Rocío: 14°C
Humedad: 88%
Barómetro: 1017 hPa
Resumen: Despejado
Visibility: greater than 10 km
2024/05/24 03:30 LEVC 240330Z 32004KT 280V340 CAVOK 16/14 Q1017 NOSIG
LEGE - Gerona/Costa Bra, Spain
Distance from station: N 276km
Actualización: Fri, 24-May-2024 5:30am CEST
Parcialmente nuboso
Parcialmente nuboso
 Viento del NE
Viento: NE 4 km/h
Temperatura: 12°C
Rocío: 11°C
Humedad: 94%
Barómetro: 1018 hPa
Clouds: Parcialmente nuboso
Visibility: 10 km
Cloud details: Parcialmente nuboso 2743 m
2024/05/24 03:30 LEGE 240330Z 04002KT 9999 SCT090 12/11 Q1018 NOSIG
 
LEAL - Alicante/El Alte, Spain
Distance from station: OSO 344km
Actualización: Fri, 24-May-2024 5:30am CEST
Despejado
Despejado
 Viento del O
Viento: O 11 km/h
Temperatura: 15°C
Rocío: 12°C
Humedad: 82%
Barómetro: 1016 hPa
Resumen: Despejado
Visibility: greater than 10 km
2024/05/24 03:30 LEAL 240330Z 28006KT CAVOK 15/12 Q1016 NOSIG
LEAM - Almeria Airport, Spain
Distance from station: SSO 56km
Actualización: Fri, 24-May-2024 5:30am CEST
Despejado
Despejado
 Viento del NNO
Viento: NNO 19 km/h
Temperatura: 20°C
Rocío: 6°C
Humedad: 40%
Barómetro: 1013 hPa
Resumen: Despejado
Visibility: greater than 10 km
2024/05/24 03:30 LEAM 240330Z 33010KT 300V010 CAVOK 20/06 Q1013
 
LEZG - Zaragoza (mil/Ci, Spain
Distance from station: NO 431km
Actualización: Fri, 24-May-2024 5:30am CEST
Muy nuboso
Muy nuboso
 Viento del O
Viento: O 17 km/h
Temperatura: 14°C
Rocío: 6°C
Humedad: 59%
Barómetro: 1018 hPa
Clouds: Muy nuboso
Visibility: 10 km
Cloud details: Muy nuboso 1829 m
2024/05/24 03:30 LEZG 240330Z 28009KT 250V310 9999 BKN060 14/06 Q1018 NOSIG
LEMD - Madrid/Barajas, Spain
Distance from station: ONO 234km
Actualización: Fri, 24-May-2024 5:30am CEST
Despejado
Despejado
 Viento del varies
Viento: varies 2 km/h
Temperatura: 11°C
Rocío: 6°C
Humedad: 72%
Barómetro: 1017 hPa
Resumen: Despejado
Visibility: greater than 10 km
2024/05/24 03:30 LEMD 240330Z VRB01KT CAVOK 11/06 Q1017 NOSIG
 
LEGR - Granada Airport, Spain
Distance from station: OSO 62km
Actualización: Fri, 24-May-2024 5:30am CEST
Despejado
Despejado
 Viento del varies
Viento: varies 4 km/h
Temperatura: 12°C
Rocío: 6°C
Humedad: 67%
Barómetro: 1016 hPa
Resumen: Despejado
Visibility: greater than 10 km
2024/05/24 03:30 LEGR 240330Z AUTO VRB02KT CAVOK 12/06 Q1016
LEMG - Malaga (civ/Mil), Spain
Distance from station: OSO 227km
Actualización: Fri, 24-May-2024 5:30am CEST
Despejado
Despejado
 Viento del ONO
Viento: ONO 13 km/h
Temperatura: 15°C
Rocío: 5°C
Humedad: 51%
Barómetro: 1015 hPa
Resumen: Despejado
Visibility: greater than 10 km
2024/05/24 03:30 LEMG 240330Z 29007KT CAVOK 15/05 Q1015 NOSIG
 
LEZL - Sevilla (civ/Mil, Spain
Distance from station: S 318km
Actualización: Fri, 24-May-2024 5:30am CEST
Despejado
Despejado
 Viento del E
Viento: E 6 km/h
Temperatura: 14°C
Rocío: 10°C
Humedad: 77%
Barómetro: 1014 hPa
Resumen: Despejado
Visibility: greater than 10 km
2024/05/24 03:30 LEZL 240330Z 10003KT 070V150 CAVOK 14/10 Q1014 NOSIG
LEVT - Vitoria, Spain
Distance from station: NO 226km
Actualización: Fri, 24-May-2024 5:30am CEST
Patches of fog, Parcialmente nuboso
Patches of fog, Parcialmente nuboso
 Viento del calm
Viento: Calma
Temperatura: 4°C
Rocío: 3°C
Humedad: 93%
Barómetro: 1020 hPa
Resumen: Patches of Fog
Clouds: Parcialmente nuboso
Visibility: 9 km
Cloud details: Parcialmente nuboso 30 m
2024/05/24 03:30 LEVT 240330Z 00000KT 9000 BCFG SCT001 04/03 Q1020
 
LEBB - Bilbao/Sondica, Spain
Distance from station: NNO 235km
Actualización: Fri, 24-May-2024 5:30am CEST
Despejado
Despejado
 Viento del varies
Viento: varies 2 km/h
Temperatura: 10°C
Rocío: 9°C
Humedad: 94%
Barómetro: 1020 hPa
Resumen: Despejado
Visibility: greater than 10 km
2024/05/24 03:30 LEBB 240330Z VRB01KT CAVOK 10/09 Q1020 NOSIG
LESO - San Sebastian/Fu, Spain
Distance from station: N 231km
Actualización: Fri, 24-May-2024 5:30am CEST
Despejado
Despejado
 Viento del S
Viento: S 9 km/h
Temperatura: 12°C
Rocío: 10°C
Humedad: 88%
Barómetro: 1020 hPa
Resumen: Despejado
Visibility: greater than 10 km
2024/05/24 03:30 LESO 240330Z AUTO 18005KT CAVOK 12/10 Q1020
 
LEVD - Valladolid(Mil/C, Spain
Distance from station: ONO 239km
Actualización: Fri, 24-May-2024 5:30am CEST
Despejado
Despejado
 Viento del ENE
Viento: ENE 7 km/h
Temperatura: 5°C
Sensación frio: 3°C
Rocío: 4°C
Humedad: 93%
Barómetro: 1018 hPa
Resumen: Despejado
Visibility: greater than 10 km
2024/05/24 03:30 LEVD 240330Z AUTO 07004KT CAVOK 05/04 Q1018
LESA - Salamanca (civ/M, Spain
Distance from station: ONO 349km
Actualización: Fri, 24-May-2024 5:30am CEST
Despejado
Despejado
 Viento del NNE
Viento: NNE 7 km/h
Temperatura: 7°C
Sensación frio: 6°C
Rocío: 4°C
Humedad: 81%
Barómetro: 1017 hPa
Resumen: Despejado
Visibility: greater than 10 km
2024/05/24 03:30 LESA 240330Z AUTO 02004KT CAVOK 07/04 Q1017
 
LEXJ - Santander/Paraya, Spain
Distance from station: NNO 247km
Actualización: Fri, 24-May-2024 5:30am CEST
Muy nuboso
Muy nuboso
 Viento del SO
Viento: SO 6 km/h
Temperatura: 13°C
Rocío: 10°C
Humedad: 82%
Barómetro: 1020 hPa
Clouds: Muy nuboso
Visibility: 10 km
Cloud details: Muy nuboso 1280 m
2024/05/24 03:30 LEXJ 240330Z 22003KT 180V280 9999 BKN042 13/10 Q1020
LEAS - Asturias/Aviles, Spain
Distance from station: NO 214km
Actualización: Fri, 24-May-2024 5:30am CEST
Muy nuboso
Muy nuboso
 Viento del varies
Viento: varies 2 km/h
Temperatura: 12°C
Rocío: 11°C
Humedad: 94%
Barómetro: 1020 hPa
Clouds: Muy nuboso
Visibility: 10 km
Cloud details: Few Clouds 945 m
Muy nuboso 1524 m
2024/05/24 03:30 LEAS 240330Z AUTO VRB01KT 9999 FEW031 BKN050 12/11 Q1020
 
LECO - La Coruna/Alvedr, Spain
Distance from station: ONO 222km
Actualización: Fri, 24-May-2024 5:51am CEST
Niebla, Cubierto
Niebla, Cubierto
 Viento del S
Viento: S 6 km/h
Temperatura: 7°C
Rocío: 7°C
Humedad: 100%
Barómetro: 1019 hPa
Resumen: Niebla
Clouds: Cubierto
Visibility: 0 km
Cloud details: Cubierto 30 m
2024/05/24 03:51 LECO 240351Z 17003KT 0200 R21/0200N R03/0375N FG VV001 07/07 Q1019 NOSIG
LEVX - Vigo/Peinador, Spain
Distance from station: O 214km
Actualización: Fri, 24-May-2024 5:30am CEST
Despejado
Despejado
 Viento del S
Viento: S 6 km/h
Temperatura: 11°C
Rocío: 8°C
Humedad: 82%
Barómetro: 1017 hPa
Resumen: Despejado
Visibility: greater than 10 km
2024/05/24 03:30 LEVX 240330Z 17003KT 140V200 CAVOK 11/08 Q1017 NOSIG